createdAt,value
2018-07-26T00:00:32.966Z,19.70
2018-07-26T00:03:02.136Z,19.80
2018-07-26T00:05:31.370Z,19.60
2018-07-26T00:08:00.547Z,19.60
2018-07-26T00:10:29.730Z,19.60
2018-07-26T00:12:58.841Z,19.60
2018-07-26T00:15:27.958Z,19.50
2018-07-26T00:17:57.051Z,19.60
2018-07-26T00:20:26.228Z,19.60
2018-07-26T00:22:55.285Z,19.70
2018-07-26T00:25:24.437Z,19.50
2018-07-26T00:27:53.830Z,19.40
2018-07-26T00:30:22.951Z,19.40
2018-07-26T00:32:52.593Z,19.50
2018-07-26T00:35:21.721Z,19.50
2018-07-26T00:37:50.978Z,19.40
2018-07-26T00:40:20.090Z,19.30
2018-07-26T00:42:49.790Z,19.20
2018-07-26T00:45:18.926Z,19.10
2018-07-26T00:47:48.543Z,19.10
2018-07-26T00:50:17.641Z,19.00
2018-07-26T00:52:46.807Z,19.00
2018-07-26T00:55:15.929Z,19.10
2018-07-26T00:57:45.026Z,19.20
2018-07-26T01:00:14.266Z,19.10
2018-07-26T01:02:43.403Z,18.90
2018-07-26T01:05:12.534Z,18.90
2018-07-26T01:07:41.941Z,18.90
2018-07-26T01:10:11.148Z,18.80
2018-07-26T01:12:40.298Z,19.00
2018-07-26T01:15:09.443Z,19.00
2018-07-26T01:17:38.643Z,19.00
2018-07-26T01:20:07.857Z,18.90
2018-07-26T01:22:36.991Z,18.90
2018-07-26T01:25:06.246Z,18.80
2018-07-26T01:27:35.420Z,18.90
2018-07-26T01:30:04.646Z,18.70
2018-07-26T01:32:33.814Z,18.80
2018-07-26T01:35:02.988Z,18.80
2018-07-26T01:37:32.907Z,18.70
2018-07-26T01:40:02.253Z,18.70
2018-07-26T01:42:41.113Z,18.70
2018-07-26T01:45:10.289Z,18.70
2018-07-26T01:47:39.402Z,18.60
2018-07-26T01:50:08.573Z,18.70
2018-07-26T01:52:37.689Z,18.60
2018-07-26T01:55:06.816Z,18.60
2018-07-26T01:57:36.493Z,18.50
2018-07-26T02:00:06.465Z,18.40
2018-07-26T02:02:36.479Z,18.50
2018-07-26T02:05:05.674Z,18.30
2018-07-26T02:07:34.837Z,18.20
2018-07-26T02:10:04.023Z,18.20
2018-07-26T02:12:33.130Z,18.30
2018-07-26T02:15:02.258Z,18.20
2018-07-26T02:17:31.377Z,18.20
2018-07-26T02:20:00.481Z,18.30
2018-07-26T02:22:29.618Z,18.20
2018-07-26T02:24:58.721Z,18.20
2018-07-26T02:27:28.034Z,18.10
2018-07-26T02:29:58.158Z,17.90
2018-07-26T02:32:27.309Z,17.90
2018-07-26T02:34:56.458Z,17.90
2018-07-26T02:37:25.858Z,17.90
2018-07-26T02:39:55.606Z,17.90
2018-07-26T02:44:53.510Z,17.90
2018-07-26T02:47:22.685Z,17.80
2018-07-26T02:49:51.777Z,17.80
2018-07-26T02:52:21.019Z,17.80
2018-07-26T02:54:50.109Z,18.00
2018-07-26T02:57:19.250Z,18.10
2018-07-26T02:59:48.384Z,18.20
2018-07-26T03:02:17.577Z,18.10
2018-07-26T03:04:46.674Z,18.10
2018-07-26T03:07:15.935Z,18.10
2018-07-26T03:09:45.495Z,17.90
2018-07-26T03:12:14.622Z,17.90
2018-07-26T03:14:45.312Z,17.90
2018-07-26T03:17:15.457Z,17.80
2018-07-26T03:19:45.277Z,17.60
2018-07-26T03:22:14.405Z,17.70
2018-07-26T03:27:12.994Z,17.60
2018-07-26T03:29:42.073Z,17.60
2018-07-26T03:32:11.526Z,17.60
2018-07-26T03:34:40.707Z,17.50
2018-07-26T03:37:09.906Z,17.40
2018-07-26T03:39:39.481Z,17.40
2018-07-26T03:42:08.635Z,17.50
2018-07-26T03:44:37.870Z,17.30
2018-07-26T03:47:07.190Z,17.50
2018-07-26T03:49:36.325Z,17.50
2018-07-26T03:52:05.853Z,17.40
2018-07-26T03:54:35.546Z,17.30
2018-07-26T03:57:04.789Z,17.30
2018-07-26T03:59:33.889Z,17.30
2018-07-26T04:02:03.062Z,17.30
2018-07-26T04:04:32.222Z,17.30
2018-07-26T04:07:01.431Z,17.30
2018-07-26T04:09:30.553Z,17.30
2018-07-26T04:11:59.745Z,17.30
2018-07-26T04:14:28.929Z,17.10
2018-07-26T04:16:58.119Z,17.20
2018-07-26T04:19:27.273Z,17.30
2018-07-26T04:21:56.418Z,17.40
2018-07-26T04:24:25.615Z,17.40
2018-07-26T04:26:54.867Z,17.50
2018-07-26T04:29:24.083Z,17.30
2018-07-26T04:31:53.257Z,17.30
2018-07-26T04:34:23.147Z,17.50
2018-07-26T04:36:52.366Z,17.60
2018-07-26T04:39:21.550Z,17.70
2018-07-26T04:41:51.265Z,17.70
2018-07-26T04:44:20.534Z,17.70
2018-07-26T04:46:49.815Z,17.60
2018-07-26T04:49:18.982Z,17.60
2018-07-26T04:51:48.106Z,17.70
2018-07-26T04:54:17.280Z,17.80
2018-07-26T04:56:46.414Z,17.80
2018-07-26T04:59:15.663Z,17.90
2018-07-26T05:01:44.834Z,18.00
2018-07-26T05:04:13.985Z,18.10
2018-07-26T05:06:44.910Z,18.20
2018-07-26T05:09:14.049Z,18.10
2018-07-26T05:11:43.202Z,18.20
2018-07-26T05:14:12.345Z,18.20
2018-07-26T05:19:10.369Z,18.30
2018-07-26T05:21:39.445Z,18.40
2018-07-26T05:24:10.108Z,18.50
2018-07-26T05:26:40.194Z,18.50
2018-07-26T05:29:09.857Z,18.70
2018-07-26T05:31:39.014Z,18.70
2018-07-26T05:34:08.154Z,18.70
2018-07-26T05:36:37.286Z,18.90
2018-07-26T05:39:09.689Z,18.90
2018-07-26T05:41:39.262Z,19.10
2018-07-26T05:44:08.597Z,19.10
2018-07-26T05:46:37.714Z,19.30
2018-07-26T05:49:06.877Z,19.30
2018-07-26T05:51:36.158Z,19.50
2018-07-26T05:54:05.409Z,19.60
2018-07-26T05:56:35.122Z,19.80
2018-07-26T05:59:04.302Z,19.90
2018-07-26T06:01:33.465Z,20.00
2018-07-26T06:04:02.625Z,20.20
2018-07-26T06:06:31.893Z,20.30
2018-07-26T06:11:29.841Z,20.80
2018-07-26T06:13:58.967Z,20.80
2018-07-26T06:16:28.118Z,20.90
2018-07-26T06:18:57.293Z,21.10
2018-07-26T06:21:26.622Z,21.20
2018-07-26T06:23:55.745Z,21.30
2018-07-26T06:26:25.624Z,21.50
2018-07-26T06:28:54.763Z,21.60
2018-07-26T06:31:23.966Z,21.70
2018-07-26T06:33:53.330Z,22.00
2018-07-26T06:36:22.497Z,22.30
2018-07-26T06:38:51.685Z,22.40
2018-07-26T06:41:20.867Z,22.40
2018-07-26T06:43:50.010Z,22.80
2018-07-26T06:46:20.198Z,22.90
2018-07-26T06:48:50.365Z,22.80
2018-07-26T06:51:19.869Z,22.80
2018-07-26T06:56:18.702Z,23.00
2018-07-26T06:58:47.909Z,23.30
2018-07-26T07:01:17.174Z,23.40
2018-07-26T07:03:46.322Z,23.60
2018-07-26T07:06:15.456Z,23.70
2018-07-26T07:08:45.748Z,23.80
2018-07-26T07:11:15.817Z,23.90
2018-07-26T07:13:46.013Z,24.10
2018-07-26T07:16:15.632Z,24.30
2018-07-26T07:18:45.422Z,24.30
2018-07-26T07:21:16.370Z,24.10
2018-07-26T07:23:45.650Z,24.10
2018-07-26T07:26:15.190Z,24.40
2018-07-26T07:28:44.357Z,24.60
2018-07-26T07:31:13.585Z,24.70
2018-07-26T07:33:42.774Z,24.90
2018-07-26T07:36:11.938Z,25.10
2018-07-26T07:38:42.043Z,25.20
2018-07-26T07:41:11.265Z,25.30
2018-07-26T07:43:40.422Z,25.30
2018-07-26T07:46:09.705Z,25.50
2018-07-26T07:48:39.418Z,25.70
2018-07-26T07:51:08.608Z,25.60
2018-07-26T07:53:38.753Z,25.40
2018-07-26T07:56:08.030Z,25.60
2018-07-26T07:58:37.247Z,25.90
2018-07-26T08:01:06.575Z,26.10
2018-07-26T08:03:35.785Z,26.10
2018-07-26T08:06:05.000Z,26.10
2018-07-26T08:08:34.152Z,26.20
2018-07-26T08:11:03.362Z,26.50
2018-07-26T08:13:32.524Z,26.50
2018-07-26T08:16:01.661Z,26.70
2018-07-26T08:18:30.933Z,26.80
2018-07-26T08:21:00.266Z,26.90
2018-07-26T08:23:29.997Z,26.90
2018-07-26T08:25:59.395Z,27.00
2018-07-26T08:28:29.826Z,27.00
2018-07-26T08:30:59.238Z,27.10
2018-07-26T08:33:29.490Z,27.20
2018-07-26T08:36:00.488Z,27.20
2018-07-26T08:38:29.629Z,27.20
2018-07-26T08:41:00.211Z,27.30
2018-07-26T08:43:29.389Z,27.40
2018-07-26T08:45:58.777Z,27.50
2018-07-26T08:48:28.039Z,27.60
2018-07-26T08:50:57.237Z,27.70
2018-07-26T08:53:26.445Z,28.00
2018-07-26T08:55:55.721Z,28.00
2018-07-26T08:58:24.910Z,28.10
2018-07-26T09:00:54.313Z,28.30
2018-07-26T09:03:24.286Z,28.40
2018-07-26T09:05:53.765Z,28.50
2018-07-26T09:08:22.964Z,28.80
2018-07-26T09:10:52.244Z,29.00
2018-07-26T09:13:21.440Z,29.20
2018-07-26T09:15:50.804Z,28.90
2018-07-26T09:18:20.002Z,28.90
2018-07-26T09:20:49.465Z,29.00
2018-07-26T09:23:19.109Z,29.00
2018-07-26T09:28:17.739Z,29.70
2018-07-26T09:30:46.886Z,29.40
2018-07-26T09:33:16.049Z,29.70
2018-07-26T09:35:45.197Z,29.70
2018-07-26T09:38:14.334Z,30.10
2018-07-26T09:40:43.444Z,30.00
2018-07-26T09:43:12.601Z,30.30
2018-07-26T09:45:41.818Z,30.40
2018-07-26T09:48:10.979Z,30.40
2018-07-26T09:50:40.076Z,30.50
2018-07-26T09:53:09.251Z,30.50
2018-07-26T09:55:38.453Z,30.50
2018-07-26T09:58:07.654Z,30.60
2018-07-26T10:00:42.235Z,30.80
2018-07-26T10:03:11.390Z,30.90
2018-07-26T10:05:40.613Z,31.10
2018-07-26T10:08:09.749Z,30.70
2018-07-26T10:10:38.905Z,30.90
2018-07-26T10:13:08.633Z,31.10
2018-07-26T10:15:37.817Z,31.30
2018-07-26T10:18:08.049Z,31.50
2018-07-26T10:20:37.250Z,32.00
2018-07-26T10:23:06.380Z,31.30
2018-07-26T10:25:36.246Z,31.30
2018-07-26T10:28:06.167Z,31.10
2018-07-26T10:30:36.079Z,31.30
2018-07-26T10:33:05.419Z,31.20
2018-07-26T10:35:34.752Z,31.10
2018-07-26T10:38:03.870Z,31.50
2018-07-26T10:40:33.073Z,31.70
2018-07-26T10:43:02.317Z,31.90
2018-07-26T10:45:31.612Z,32.10
2018-07-26T10:48:00.840Z,32.20
2018-07-26T10:50:29.986Z,32.10
2018-07-26T10:52:59.142Z,32.00
2018-07-26T10:55:28.310Z,31.50
2018-07-26T10:57:57.466Z,31.40
2018-07-26T11:00:26.739Z,31.80
2018-07-26T11:02:55.773Z,31.90
2018-07-26T11:05:24.901Z,31.90
2018-07-26T11:07:54.026Z,32.10
2018-07-26T11:10:23.194Z,32.90
2018-07-26T11:12:52.305Z,33.10
2018-07-26T11:15:30.310Z,32.40
2018-07-26T11:18:00.723Z,31.60
2018-07-26T11:20:30.019Z,31.70
2018-07-26T11:22:59.270Z,32.10
2018-07-26T11:25:28.595Z,32.30
2018-07-26T11:27:57.784Z,31.90
2018-07-26T11:30:26.977Z,32.30
2018-07-26T11:32:56.105Z,32.30
2018-07-26T11:35:25.305Z,32.10
2018-07-26T11:37:54.465Z,32.30
2018-07-26T11:40:24.132Z,32.20
2018-07-26T11:42:53.730Z,32.20
2018-07-26T11:45:22.900Z,32.10
2018-07-26T11:47:52.009Z,32.40
2018-07-26T11:50:21.130Z,32.60
2018-07-26T11:52:50.292Z,32.80
2018-07-26T11:55:19.429Z,32.70
2018-07-26T11:57:48.545Z,32.60
2018-07-26T12:00:17.718Z,32.20
2018-07-26T12:05:15.521Z,32.60
2018-07-26T12:07:44.621Z,32.10
2018-07-26T12:10:13.754Z,32.40
2018-07-26T12:12:42.842Z,32.70
2018-07-26T12:15:11.943Z,32.90
2018-07-26T12:17:41.770Z,32.90
2018-07-26T12:20:10.853Z,32.80
2018-07-26T12:22:39.958Z,32.80
2018-07-26T12:25:09.201Z,33.00
2018-07-26T12:27:38.339Z,32.80
2018-07-26T12:30:08.755Z,32.80
2018-07-26T12:32:37.869Z,32.80
2018-07-26T12:35:06.965Z,33.00
2018-07-26T12:37:36.093Z,32.90
2018-07-26T12:40:06.262Z,32.80
2018-07-26T12:42:35.382Z,32.90
2018-07-26T12:45:04.750Z,33.00
2018-07-26T12:47:33.925Z,32.80
2018-07-26T12:50:03.139Z,32.80
2018-07-26T12:52:32.269Z,32.60
2018-07-26T12:55:01.385Z,32.70
2018-07-26T12:57:31.085Z,32.80
2018-07-26T13:00:00.214Z,33.10
2018-07-26T13:02:30.098Z,32.90
2018-07-26T13:04:59.345Z,32.80
2018-07-26T13:07:28.524Z,32.80
2018-07-26T13:09:57.651Z,33.10
2018-07-26T13:12:26.815Z,33.10
2018-07-26T13:14:56.810Z,32.90
2018-07-26T13:17:25.979Z,33.10
2018-07-26T13:19:55.074Z,33.10
2018-07-26T13:22:24.203Z,33.20
2018-07-26T13:24:53.293Z,33.20
2018-07-26T13:27:22.471Z,32.90
2018-07-26T13:29:52.186Z,33.00
2018-07-26T13:32:21.362Z,33.00
2018-07-26T13:34:50.503Z,33.00
2018-07-26T13:37:19.639Z,33.10
2018-07-26T13:39:48.787Z,33.30
2018-07-26T13:42:17.942Z,33.30
2018-07-26T13:44:47.382Z,32.90
2018-07-26T13:47:16.523Z,32.20
2018-07-26T13:49:46.417Z,32.30
2018-07-26T13:52:15.929Z,32.20
2018-07-26T13:54:46.697Z,32.30
2018-07-26T13:59:46.816Z,32.20
2018-07-26T14:02:16.494Z,32.30
2018-07-26T14:04:45.912Z,32.40
2018-07-26T14:07:15.742Z,32.30
2018-07-26T14:09:44.976Z,32.40
2018-07-26T14:12:14.229Z,32.60
2018-07-26T14:14:44.225Z,32.60
2018-07-26T14:17:13.934Z,32.40
2018-07-26T14:19:43.276Z,32.40
2018-07-26T14:22:13.172Z,32.60
2018-07-26T14:24:42.467Z,32.70
2018-07-26T14:27:11.797Z,32.60
2018-07-26T14:29:41.726Z,32.70
2018-07-26T14:32:10.963Z,32.70
2018-07-26T14:34:40.403Z,32.60
2018-07-26T14:37:09.604Z,32.60
2018-07-26T14:39:39.661Z,32.60
2018-07-26T14:42:09.718Z,32.30
2018-07-26T14:44:40.228Z,32.60
2018-07-26T14:47:10.520Z,32.50
2018-07-26T14:49:40.067Z,32.40
2018-07-26T14:54:38.494Z,32.30
2018-07-26T14:57:08.466Z,32.20
2018-07-26T14:59:37.805Z,32.30
2018-07-26T15:02:07.186Z,32.20
2018-07-26T15:04:36.930Z,32.10
2018-07-26T15:07:07.162Z,32.10
2018-07-26T15:09:36.584Z,31.90
2018-07-26T15:12:06.356Z,31.70
2018-07-26T15:14:36.230Z,32.00
2018-07-26T15:17:05.614Z,32.00
2018-07-26T15:19:36.362Z,32.00
2018-07-26T15:22:05.845Z,31.90
2018-07-26T15:24:36.023Z,31.90
2018-07-26T15:27:06.127Z,31.80
2018-07-26T15:29:36.279Z,31.80
2018-07-26T15:32:07.045Z,31.60
2018-07-26T15:34:40.300Z,31.80
2018-07-26T15:37:10.633Z,31.70
2018-07-26T15:39:42.297Z,31.70
2018-07-26T15:42:11.679Z,31.70
2018-07-26T15:44:41.929Z,31.60
2018-07-26T15:47:11.055Z,31.60
2018-07-26T15:49:40.640Z,31.30
2018-07-26T15:52:10.186Z,31.30
2018-07-26T15:54:39.874Z,31.30
2018-07-26T15:57:09.734Z,31.30
2018-07-26T15:59:39.227Z,31.40
2018-07-26T16:02:10.164Z,31.30
2018-07-26T16:04:41.999Z,31.20
2018-07-26T16:07:11.378Z,30.90
2018-07-26T16:09:41.280Z,30.80
2018-07-26T16:12:11.897Z,30.60
2018-07-26T16:14:42.440Z,30.50
2018-07-26T16:17:11.805Z,30.50
2018-07-26T16:19:41.325Z,30.60
2018-07-26T16:22:11.384Z,30.70
2018-07-26T16:24:41.507Z,30.60
2018-07-26T16:27:10.899Z,30.60
2018-07-26T16:29:40.157Z,30.50
2018-07-26T16:32:09.552Z,30.60
2018-07-26T16:34:39.000Z,30.60
2018-07-26T16:37:12.708Z,30.40
2018-07-26T16:39:50.711Z,30.40
2018-07-26T16:42:21.424Z,30.30
2018-07-26T16:44:52.538Z,30.30
2018-07-26T16:47:26.110Z,30.20
2018-07-26T16:49:58.738Z,30.20
2018-07-26T16:52:30.834Z,30.20
2018-07-26T16:55:02.086Z,30.20
2018-07-26T16:57:34.014Z,30.20
2018-07-26T17:00:06.692Z,30.00
2018-07-26T17:02:39.145Z,29.90
2018-07-26T17:05:11.033Z,29.90
2018-07-26T17:07:43.804Z,29.80
2018-07-26T17:10:14.569Z,29.80
2018-07-26T17:12:45.008Z,29.70
2018-07-26T17:15:16.153Z,29.70
2018-07-26T17:17:48.120Z,29.70
2018-07-26T17:20:21.608Z,29.40
2018-07-26T17:22:53.288Z,29.40
2018-07-26T17:25:26.460Z,29.40
2018-07-26T17:27:57.611Z,29.40
2018-07-26T17:30:28.801Z,29.30
2018-07-26T17:32:59.219Z,29.30
2018-07-26T17:35:30.365Z,29.40
2018-07-26T17:38:01.996Z,29.30
2018-07-26T17:40:31.928Z,29.30
2018-07-26T17:43:03.668Z,29.20
2018-07-26T17:45:35.279Z,29.20
2018-07-26T17:48:07.855Z,29.20
2018-07-26T17:50:41.355Z,29.10
2018-07-26T17:55:44.684Z,29.00
2018-07-26T17:58:16.127Z,28.90
2018-07-26T18:00:49.552Z,28.90
2018-07-26T18:03:22.774Z,28.90
2018-07-26T18:05:56.464Z,28.80
2018-07-26T18:08:28.693Z,28.70
2018-07-26T18:11:01.592Z,28.70
2018-07-26T18:13:34.956Z,28.60
2018-07-26T18:16:08.035Z,28.60
2018-07-26T18:18:40.685Z,28.40
2018-07-26T18:21:14.262Z,28.40
2018-07-26T18:23:48.206Z,28.40
2018-07-26T18:26:20.132Z,28.30
2018-07-26T18:28:54.853Z,28.30
2018-07-26T18:31:28.189Z,28.20
2018-07-26T18:33:59.951Z,28.20
2018-07-26T18:36:30.794Z,28.00
2018-07-26T18:39:01.784Z,27.90
2018-07-26T18:41:33.435Z,27.80
2018-07-26T18:46:36.210Z,27.70
2018-07-26T18:49:07.656Z,27.50
2018-07-26T18:51:38.740Z,27.50
2018-07-26T18:54:11.184Z,27.40
2018-07-26T18:56:44.265Z,27.10
2018-07-26T18:59:14.959Z,27.10
2018-07-26T19:01:46.510Z,27.10
2018-07-26T19:04:18.825Z,27.10
2018-07-26T19:06:50.865Z,26.90
2018-07-26T19:09:22.860Z,26.70
2018-07-26T19:11:57.103Z,26.50
2018-07-26T19:14:30.171Z,26.40
2018-07-26T19:17:02.335Z,26.30
2018-07-26T19:19:32.772Z,26.30
2018-07-26T19:22:04.765Z,26.30
2018-07-26T19:24:37.083Z,26.30
2018-07-26T19:27:08.520Z,25.70
2018-07-26T19:29:40.118Z,25.70
2018-07-26T19:32:11.279Z,25.30
2018-07-26T19:34:43.735Z,25.10
2018-07-26T19:37:15.344Z,25.00
2018-07-26T19:39:47.472Z,24.90
2018-07-26T19:42:19.065Z,24.80
2018-07-26T19:44:50.169Z,24.70
2018-07-26T19:47:20.640Z,24.50
2018-07-26T19:49:52.614Z,24.50
2018-07-26T19:52:24.175Z,24.60
2018-07-26T19:54:56.125Z,24.60
2018-07-26T19:57:27.935Z,24.80
2018-07-26T19:59:59.795Z,24.20
2018-07-26T20:02:32.270Z,24.10
2018-07-26T20:05:02.267Z,24.10
2018-07-26T20:07:32.412Z,23.90
2018-07-26T20:10:01.937Z,23.80
2018-07-26T20:12:32.198Z,23.80
2018-07-26T20:15:03.587Z,23.80
2018-07-26T20:17:33.419Z,23.60
2018-07-26T20:20:04.259Z,23.60
2018-07-26T20:22:35.818Z,23.30
2018-07-26T20:27:34.632Z,23.20
2018-07-26T20:32:34.484Z,23.10
2018-07-26T20:35:03.971Z,23.10
2018-07-26T20:37:33.200Z,23.00
2018-07-26T20:40:02.419Z,23.10
2018-07-26T20:45:01.290Z,22.90
2018-07-26T20:47:30.598Z,22.80
2018-07-26T20:49:59.870Z,22.70
2018-07-26T20:52:29.654Z,22.70
2018-07-26T20:54:58.985Z,22.70
2018-07-26T20:57:28.419Z,22.50
2018-07-26T20:59:59.096Z,22.40
2018-07-26T21:02:28.635Z,22.30
2018-07-26T21:04:57.893Z,22.30
2018-07-26T21:07:27.823Z,22.20
2018-07-26T21:09:57.280Z,22.30
2018-07-26T21:12:27.197Z,22.40
2018-07-26T21:14:56.540Z,22.40
2018-07-26T21:17:27.265Z,22.30
2018-07-26T21:19:57.199Z,22.10
2018-07-26T21:22:26.490Z,22.10
2018-07-26T21:24:55.641Z,21.90
2018-07-26T21:27:24.865Z,21.90
2018-07-26T21:32:23.641Z,22.00
2018-07-26T21:34:52.994Z,22.10
2018-07-26T21:37:22.329Z,22.10
2018-07-26T21:39:52.710Z,22.00
2018-07-26T21:42:23.125Z,21.80
2018-07-26T21:44:53.040Z,21.70
2018-07-26T21:47:22.945Z,21.60
2018-07-26T21:49:53.165Z,21.40
2018-07-26T21:52:23.230Z,21.40
2018-07-26T21:54:53.462Z,21.50
2018-07-26T21:57:23.571Z,21.40
2018-07-26T21:59:53.717Z,21.40
2018-07-26T22:02:23.951Z,21.40
2018-07-26T22:04:53.955Z,21.30
2018-07-26T22:07:24.045Z,21.30
2018-07-26T22:09:54.677Z,21.20
2018-07-26T22:12:24.714Z,21.30
2018-07-26T22:14:54.575Z,21.10
2018-07-26T22:17:25.068Z,21.10
2018-07-26T22:19:54.251Z,21.00
2018-07-26T22:22:23.521Z,20.90
2018-07-26T22:24:52.770Z,20.80
2018-07-26T22:27:22.568Z,20.90
2018-07-26T22:29:51.837Z,20.90
2018-07-26T22:32:21.434Z,20.80
2018-07-26T22:34:50.904Z,20.80
2018-07-26T22:37:20.170Z,20.70
2018-07-26T22:39:49.394Z,20.60
2018-07-26T22:42:18.674Z,20.60
2018-07-26T22:44:47.916Z,20.50
2018-07-26T22:47:17.284Z,20.40
2018-07-26T22:49:46.505Z,20.30
2018-07-26T22:52:15.772Z,20.40
2018-07-26T22:54:44.956Z,20.40
2018-07-26T22:57:14.203Z,20.30
2018-07-26T22:59:43.419Z,20.30
2018-07-26T23:02:12.658Z,20.40
2018-07-26T23:07:10.666Z,20.10
2018-07-26T23:09:39.850Z,20.10
2018-07-26T23:12:09.029Z,20.10
2018-07-26T23:14:38.339Z,20.10
2018-07-26T23:17:07.796Z,20.10
2018-07-26T23:19:37.080Z,20.20
2018-07-26T23:22:06.354Z,20.30
2018-07-26T23:24:35.552Z,20.20
2018-07-26T23:27:04.885Z,20.00
2018-07-26T23:29:34.194Z,19.90
2018-07-26T23:32:03.392Z,19.80
2018-07-26T23:34:33.184Z,20.00
2018-07-26T23:37:02.414Z,19.80
2018-07-26T23:39:31.726Z,19.70
2018-07-26T23:42:00.925Z,19.70
2018-07-26T23:44:30.537Z,19.70
2018-07-26T23:46:59.777Z,19.70
2018-07-26T23:49:29.060Z,19.50
2018-07-26T23:51:58.897Z,19.50
2018-07-26T23:54:28.157Z,19.20
2018-07-26T23:59:26.520Z,19.50
